Moku Pahu — WBWK — position and weather

sailwx.info

Track history (hours):
 
Tides and Currents Weather Stations Pressure Air Temp Water Temp Dewpoint Dewpoint Depression Visibility Wind Speed Wind Dir Waves Ship Positions

Moku Pahu

Owner: MATSON NAVIGATION, RALEIGH, NC. More information available from US FCC via Universal Licensing System and Coast Guard Vessel Documentation Center.

Last reported at 2014-Nov-24 08:33 UTC. Time now 2014-Nov-24 09:31 UTC.
Position N 37°10' W 124°03'.

Type: Ship. MMSI: 366857000.

Date/timePositionNaut miles runAvg speedWind from/ knotsBaromVisibWave heightAir tempDewpointWater temp
2014-Nov-24 08:33N 37°10' W 124°03'8 8.0
2014-Nov-24 07:33N 37°14' W 123°55'8 7.4
2014-Nov-24 06:30N 37°18' W 123°46'10 7.4
2014-Nov-24 05:09N 37°22' W 123°35'5 7.6
2014-Nov-24 04:33N 37°23' W 123°30'9 7.7
2014-Nov-24 03:24N 37°27' W 123°20'7 8.3
2014-Nov-24 02:32N 37°31' W 123°11'1111.7
2014-Nov-24 01:33N 37°37' W 122°59'1111.3
2014-Nov-24 00:33N 37°43' W 122°47'9 9.2
2014-Nov-23 23:33N 37°46' W 122°36'1111.4
2014-Nov-23 22:34N 37°48' W 122°22'2 2.3
2014-Nov-23 21:33N 37°46' W 122°21'0 0.2
2014-Nov-23 20:31N 37°46' W 122°21'0 0.2
2014-Nov-23 19:33N 37°45' W 122°21'0 0.0
2014-Nov-23 18:33N 37°45' W 122°21'0 0.0
2014-Nov-23 17:31N 37°45' W 122°21'0 0.0
2014-Nov-23 16:29N 37°45' W 122°21'0 0.0
2014-Nov-23 15:32N 37°45' W 122°21'0 0.1
2014-Nov-23 14:33N 37°46' W 122°21'0 0.2
2014-Nov-23 13:30N 37°46' W 122°21'0 0.0
2014-Nov-23 12:31N 37°46' W 122°21'0 0.0
2014-Nov-23 11:32N 37°46' W 122°21'0 0.1
2014-Nov-23 10:32N 37°46' W 122°21'0 0.2
2014-Nov-23 09:33N 37°45' W 122°21'0 0.1
2014-Nov-23 08:31N 37°45' W 122°21'0 0.0
2014-Nov-23 07:31N 37°45' W 122°21'0 0.0
2014-Nov-23 06:32N 37°45' W 122°21'0 0.1
2014-Nov-23 05:30N 37°45' W 122°21'0 0.1
2014-Nov-23 04:33N 37°45' W 122°21'0 0.0
2014-Nov-23 03:28N 37°46' W 122°21'0 0.2
2014-Nov-23 02:33N 37°46' W 122°21'0 0.0
2014-Nov-23 01:33N 37°46' W 122°21'0 0.0
2014-Nov-23 00:34N 37°46' W 122°21'2 2.0
2014-Nov-22 23:33N 37°47' W 122°23'1212.0
2014-Nov-22 22:33N 37°59' W 122°26'1111.0
2014-Nov-22 21:33N 38°04' W 122°13'8 7.8
2014-Nov-22 20:32N 38°04' W 122°03'9 7.6
2014-Nov-22 19:21N 38°02' W 121°52'  
2014-Nov-19 17:33N 38°02' W 121°51'17 8.5
2014-Nov-19 15:33N 38°03' W 122°12'1 0.5
2014-Nov-19 14:26N 38°03' W 122°13'0 0.0
2014-Nov-19 13:33N 38°03' W 122°13'0 0.0
2014-Nov-19 12:33N 38°03' W 122°13'0 0.0
2014-Nov-19 11:28N 38°03' W 122°13'0 0.0
2014-Nov-19 10:29N 38°03' W 122°13'0 0.0
2014-Nov-19 09:29N 38°03' W 122°13'0 0.0
2014-Nov-19 08:30N 38°03' W 122°13'0 0.0
2014-Nov-19 07:31N 38°03' W 122°13'0 0.0
2014-Nov-19 06:31N 38°03' W 122°13'0 0.0
2014-Nov-19 05:32N 38°03' W 122°13'0 0.0
2014-Nov-19 04:33N 38°03' W 122°13'0 0.0
2014-Nov-19 03:33N 38°03' W 122°13'0 0.0
2014-Nov-19 02:22N 38°03' W 122°13'0 0.0
2014-Nov-19 01:29N 38°03' W 122°13'0 0.0
2014-Nov-19 00:12N 38°03' W 122°13'0 0.0
2014-Nov-18 20:32N 38°03' W 122°13'0 0.0
2014-Nov-18 19:33N 38°03' W 122°13'0 0.0
2014-Nov-18 18:33N 38°03' W 122°13'0 0.0
2014-Nov-18 17:28N 38°03' W 122°13'0 0.0
2014-Nov-18 16:23N 38°03' W 122°13'0 0.0
2014-Nov-18 15:23N 38°03' W 122°13'0 0.0
2014-Nov-18 14:30N 38°03' W 122°13'0 0.0
2014-Nov-18 13:31N 38°03' W 122°13'0 0.0
2014-Nov-18 08:28N 38°03' W 122°13'0 0.0
2014-Nov-18 07:29N 38°03' W 122°13'0 0.0
2014-Nov-18 06:29N 38°03' W 122°13'0 0.0
2014-Nov-18 05:30N 38°03' W 122°13'0 0.0
2014-Nov-18 04:31N 38°03' W 122°13'0 0.0
2014-Nov-18 03:31N 38°03' W 122°13'0 0.0
2014-Nov-18 02:32N 38°03' W 122°13'0 0.0
2014-Nov-18 01:33N 38°03' W 122°13'0 0.0
2014-Nov-17 21:29N 38°03' W 122°13'0 0.0
2014-Nov-17 20:30N 38°03' W 122°13'0 0.0
2014-Nov-17 19:19N 38°03' W 122°13'0 0.0
2014-Nov-17 18:25N 38°03' W 122°13'0 0.0
2014-Nov-17 17:32N 38°03' W 122°13'0 0.0
2014-Nov-17 16:33N 38°03' W 122°13'0 0.0
2014-Nov-17 15:33N 38°03' W 122°13'0 0.0
2014-Nov-17 14:28N 38°03' W 122°13'0 0.0
2014-Nov-17 13:23N 38°03' W 122°13'0 0.0
2014-Nov-17 12:29N 38°03' W 122°13'0 0.0
2014-Nov-17 11:30N 38°03' W 122°13'0 0.0
2014-Nov-17 10:31N 38°03' W 122°13'0 0.0
2014-Nov-17 09:31N 38°03' W 122°13'0 0.0
2014-Nov-17 08:32N 38°03' W 122°13'0 0.0
2014-Nov-17 07:21N 38°03' W 122°13'0 0.0
2014-Nov-17 06:33N 38°03' W 122°13'0 0.0
2014-Nov-17 05:28N 38°03' W 122°13'0 0.0
2014-Nov-17 04:23N 38°03' W 122°13'0 0.0
2014-Nov-17 03:29N 38°03' W 122°13'0 0.0
2014-Nov-17 02:24N 38°03' W 122°13'0 0.0
2014-Nov-17 01:31N 38°03' W 122°13'0 0.0
2014-Nov-17 00:31N 38°03' W 122°13'0 0.0
2014-Nov-16 23:32N 38°03' W 122°13'0 0.0
2014-Nov-16 22:32N 38°03' W 122°13'0 0.0
2014-Nov-16 21:27N 38°03' W 122°13'0 0.0
2014-Nov-16 20:28N 38°03' W 122°13'0 0.0
2014-Nov-16 19:23N 38°03' W 122°13'0 0.0
2014-Nov-16 18:29N 38°03' W 122°13'0 0.0
2014-Nov-16 17:24N 38°03' W 122°13'0 0.0
2014-Nov-16 16:30N 38°03' W 122°13'0 0.0
2014-Nov-16 15:31N 38°03' W 122°13'0 0.0
2014-Nov-16 14:32N 38°03' W 122°13'0 0.0
2014-Nov-16 13:27N 38°03' W 122°13'0 0.0
2014-Nov-16 12:33N 38°03' W 122°13'0 0.0
2014-Nov-16 11:28N 38°03' W 122°13'0 0.0
2014-Nov-16 10:29N 38°03' W 122°13'0 0.0
2014-Nov-16 09:29N 38°03' W 122°13'0 0.0
2014-Nov-16 08:30N 38°03' W 122°13'0 0.0
2014-Nov-16 07:30N 38°03' W 122°13'0 0.0
2014-Nov-16 06:31N 38°03' W 122°13'0 0.0
2014-Nov-16 05:32N 38°03' W 122°13'0 0.0
2014-Nov-16 04:32N 38°03' W 122°13'0 0.0
2014-Nov-16 03:33N 38°03' W 122°13'0 0.0
2014-Nov-16 02:28N 38°03' W 122°13'0 0.0
2014-Nov-16 01:29N 38°03' W 122°13'0 0.0
2014-Nov-16 00:29N 38°03' W 122°13'0 0.0
2014-Nov-15 23:30N 38°03' W 122°13'0 0.0
2014-Nov-15 22:30N 38°03' W 122°13'0 0.0
2014-Nov-15 21:31N 38°03' W 122°13'0 0.0
2014-Nov-15 20:32N 38°03' W 122°13'0 0.0
2014-Nov-15 19:32N 38°03' W 122°13'0 0.0
2014-Nov-15 17:28N 38°03' W 122°13'0 0.0
2014-Nov-15 16:28N 38°03' W 122°13'0 0.0
2014-Nov-15 15:29N 38°03' W 122°13'0 0.0
2014-Nov-15 14:30N 38°03' W 122°13'0 0.0
2014-Nov-15 13:30N 38°03' W 122°13'0 0.0
2014-Nov-15 12:31N 38°03' W 122°13'0 0.0
2014-Nov-15 11:32N 38°03' W 122°13'0 0.0
2014-Nov-15 10:32N 38°03' W 122°13'0 0.0
2014-Nov-15 09:33N 38°03' W 122°13'0 0.0
2014-Nov-15 08:28N 38°03' W 122°13'0 0.0
2014-Nov-15 07:28N 38°03' W 122°13'0 0.0
2014-Nov-15 06:29N 38°03' W 122°13'0 0.0
2014-Nov-15 05:30N 38°03' W 122°13'0 0.0
2014-Nov-15 04:30N 38°03' W 122°13'0 0.0
2014-Nov-15 03:31N 38°03' W 122°13'0 0.0
2014-Nov-15 02:32N 38°03' W 122°13'0 0.0
2014-Nov-15 01:32N 38°03' W 122°13'0 0.0
2014-Nov-14 23:28N 38°03' W 122°13'0 0.0
2014-Nov-14 22:28N 38°03' W 122°13'0 0.0
2014-Nov-14 21:23N 38°03' W 122°13'0 0.0
2014-Nov-14 20:30N 38°03' W 122°13'0 0.0
2014-Nov-14 18:31N 38°03' W 122°13'0 0.0
2014-Nov-14 17:32N 38°03' W 122°13'0 0.0
2014-Nov-14 16:32N 38°03' W 122°13'0 0.0
2014-Nov-14 15:33N 38°03' W 122°13'0 0.0
2014-Nov-14 14:28N 38°03' W 122°13'0 0.0
2014-Nov-14 12:23N 38°03' W 122°13'0 0.0
2014-Nov-14 11:30N 38°03' W 122°13'0 0.0
2014-Nov-14 10:30N 38°03' W 122°13'0 0.0
2014-Nov-14 09:31N 38°03' W 122°13'  
Track history (hours):
 
Tides and Currents Weather Stations Pressure Air Temp Water Temp Dewpoint Dewpoint Depression Visibility Wind Speed Wind Dir Waves Ship Positions

Moku Pahu

Owner: MATSON NAVIGATION, RALEIGH, NC. More information available from US FCC via Universal Licensing System and Coast Guard Vessel Documentation Center.

Last reported at 2014-Nov-24 08:33 UTC. Time now 2014-Nov-24 09:31 UTC.
Position N 37°10' W 124°03'.

Type: Ship. MMSI: 366857000.

Date/timePositionNaut miles runAvg speedWind from/ knotsBaromVisibWave heightAir tempDewpointWater temp
2014-Nov-24 08:33N 37°10' W 124°03'8 8.0
2014-Nov-24 07:33N 37°14' W 123°55'8 7.4
2014-Nov-24 06:30N 37°18' W 123°46'10 7.4
2014-Nov-24 05:09N 37°22' W 123°35'5 7.6
2014-Nov-24 04:33N 37°23' W 123°30'9 7.7
2014-Nov-24 03:24N 37°27' W 123°20'7 8.3
2014-Nov-24 02:32N 37°31' W 123°11'1111.7
2014-Nov-24 01:33N 37°37' W 122°59'1111.3
2014-Nov-24 00:33N 37°43' W 122°47'9 9.2
2014-Nov-23 23:33N 37°46' W 122°36'1111.4
2014-Nov-23 22:34N 37°48' W 122°22'2 2.3
2014-Nov-23 21:33N 37°46' W 122°21'0 0.2
2014-Nov-23 20:31N 37°46' W 122°21'0 0.2
2014-Nov-23 19:33N 37°45' W 122°21'0 0.0
2014-Nov-23 18:33N 37°45' W 122°21'0 0.0
2014-Nov-23 17:31N 37°45' W 122°21'0 0.0
2014-Nov-23 16:29N 37°45' W 122°21'0 0.0
2014-Nov-23 15:32N 37°45' W 122°21'0 0.1
2014-Nov-23 14:33N 37°46' W 122°21'0 0.2
2014-Nov-23 13:30N 37°46' W 122°21'0 0.0
2014-Nov-23 12:31N 37°46' W 122°21'0 0.0
2014-Nov-23 11:32N 37°46' W 122°21'0 0.1
2014-Nov-23 10:32N 37°46' W 122°21'0 0.2
2014-Nov-23 09:33N 37°45' W 122°21'0 0.1
2014-Nov-23 08:31N 37°45' W 122°21'0 0.0
2014-Nov-23 07:31N 37°45' W 122°21'0 0.0
2014-Nov-23 06:32N 37°45' W 122°21'0 0.1
2014-Nov-23 05:30N 37°45' W 122°21'0 0.1
2014-Nov-23 04:33N 37°45' W 122°21'0 0.0
2014-Nov-23 03:28N 37°46' W 122°21'0 0.2
2014-Nov-23 02:33N 37°46' W 122°21'0 0.0
2014-Nov-23 01:33N 37°46' W 122°21'0 0.0
2014-Nov-23 00:34N 37°46' W 122°21'2 2.0
2014-Nov-22 23:33N 37°47' W 122°23'1212.0
2014-Nov-22 22:33N 37°59' W 122°26'1111.0
2014-Nov-22 21:33N 38°04' W 122°13'8 7.8
2014-Nov-22 20:32N 38°04' W 122°03'9 7.6
2014-Nov-22 19:21N 38°02' W 121°52'  
2014-Nov-19 17:33N 38°02' W 121°51'17 8.5
2014-Nov-19 15:33N 38°03' W 122°12'1 0.5
2014-Nov-19 14:26N 38°03' W 122°13'0 0.0
2014-Nov-19 13:33N 38°03' W 122°13'0 0.0
2014-Nov-19 12:33N 38°03' W 122°13'0 0.0
2014-Nov-19 11:28N 38°03' W 122°13'0 0.0
2014-Nov-19 10:29N 38°03' W 122°13'0 0.0
2014-Nov-19 09:29N 38°03' W 122°13'0 0.0
2014-Nov-19 08:30N 38°03' W 122°13'0 0.0
2014-Nov-19 07:31N 38°03' W 122°13'0 0.0
2014-Nov-19 06:31N 38°03' W 122°13'0 0.0
2014-Nov-19 05:32N 38°03' W 122°13'0 0.0
2014-Nov-19 04:33N 38°03' W 122°13'0 0.0
2014-Nov-19 03:33N 38°03' W 122°13'0 0.0
2014-Nov-19 02:22N 38°03' W 122°13'0 0.0
2014-Nov-19 01:29N 38°03' W 122°13'0 0.0
2014-Nov-19 00:12N 38°03' W 122°13'0 0.0
2014-Nov-18 20:32N 38°03' W 122°13'0 0.0
2014-Nov-18 19:33N 38°03' W 122°13'0 0.0
2014-Nov-18 18:33N 38°03' W 122°13'0 0.0
2014-Nov-18 17:28N 38°03' W 122°13'0 0.0
2014-Nov-18 16:23N 38°03' W 122°13'0 0.0
2014-Nov-18 15:23N 38°03' W 122°13'0 0.0
2014-Nov-18 14:30N 38°03' W 122°13'0 0.0
2014-Nov-18 13:31N 38°03' W 122°13'0 0.0
2014-Nov-18 08:28N 38°03' W 122°13'0 0.0
2014-Nov-18 07:29N 38°03' W 122°13'0 0.0
2014-Nov-18 06:29N 38°03' W 122°13'0 0.0
2014-Nov-18 05:30N 38°03' W 122°13'0 0.0
2014-Nov-18 04:31N 38°03' W 122°13'0 0.0
2014-Nov-18 03:31N 38°03' W 122°13'0 0.0
2014-Nov-18 02:32N 38°03' W 122°13'0 0.0
2014-Nov-18 01:33N 38°03' W 122°13'0 0.0
2014-Nov-17 21:29N 38°03' W 122°13'0 0.0
2014-Nov-17 20:30N 38°03' W 122°13'0 0.0
2014-Nov-17 19:19N 38°03' W 122°13'0 0.0
2014-Nov-17 18:25N 38°03' W 122°13'0 0.0
2014-Nov-17 17:32N 38°03' W 122°13'0 0.0
2014-Nov-17 16:33N 38°03' W 122°13'0 0.0
2014-Nov-17 15:33N 38°03' W 122°13'0 0.0
2014-Nov-17 14:28N 38°03' W 122°13'0 0.0
2014-Nov-17 13:23N 38°03' W 122°13'0 0.0
2014-Nov-17 12:29N 38°03' W 122°13'0 0.0
2014-Nov-17 11:30N 38°03' W 122°13'0 0.0
2014-Nov-17 10:31N 38°03' W 122°13'0 0.0
2014-Nov-17 09:31N 38°03' W 122°13'0 0.0
2014-Nov-17 08:32N 38°03' W 122°13'0 0.0
2014-Nov-17 07:21N 38°03' W 122°13'0 0.0
2014-Nov-17 06:33N 38°03' W 122°13'0 0.0
2014-Nov-17 05:28N 38°03' W 122°13'0 0.0
2014-Nov-17 04:23N 38°03' W 122°13'0 0.0
2014-Nov-17 03:29N 38°03' W 122°13'0 0.0
2014-Nov-17 02:24N 38°03' W 122°13'0 0.0
2014-Nov-17 01:31N 38°03' W 122°13'0 0.0
2014-Nov-17 00:31N 38°03' W 122°13'0 0.0
2014-Nov-16 23:32N 38°03' W 122°13'0 0.0
2014-Nov-16 22:32N 38°03' W 122°13'0 0.0
2014-Nov-16 21:27N 38°03' W 122°13'0 0.0
2014-Nov-16 20:28N 38°03' W 122°13'0 0.0
2014-Nov-16 19:23N 38°03' W 122°13'0 0.0
2014-Nov-16 18:29N 38°03' W 122°13'0 0.0
2014-Nov-16 17:24N 38°03' W 122°13'0 0.0
2014-Nov-16 16:30N 38°03' W 122°13'0 0.0
2014-Nov-16 15:31N 38°03' W 122°13'0 0.0
2014-Nov-16 14:32N 38°03' W 122°13'0 0.0
2014-Nov-16 13:27N 38°03' W 122°13'0 0.0
2014-Nov-16 12:33N 38°03' W 122°13'0 0.0
2014-Nov-16 11:28N 38°03' W 122°13'0 0.0
2014-Nov-16 10:29N 38°03' W 122°13'0 0.0
2014-Nov-16 09:29N 38°03' W 122°13'0 0.0
2014-Nov-16 08:30N 38°03' W 122°13'0 0.0
2014-Nov-16 07:30N 38°03' W 122°13'0 0.0
2014-Nov-16 06:31N 38°03' W 122°13'0 0.0
2014-Nov-16 05:32N 38°03' W 122°13'0 0.0
2014-Nov-16 04:32N 38°03' W 122°13'0 0.0
2014-Nov-16 03:33N 38°03' W 122°13'0 0.0
2014-Nov-16 02:28N 38°03' W 122°13'0 0.0
2014-Nov-16 01:29N 38°03' W 122°13'0 0.0
2014-Nov-16 00:29N 38°03' W 122°13'0 0.0
2014-Nov-15 23:30N 38°03' W 122°13'0 0.0
2014-Nov-15 22:30N 38°03' W 122°13'0 0.0
2014-Nov-15 21:31N 38°03' W 122°13'0 0.0
2014-Nov-15 20:32N 38°03' W 122°13'0 0.0
2014-Nov-15 19:32N 38°03' W 122°13'0 0.0
2014-Nov-15 17:28N 38°03' W 122°13'0 0.0
2014-Nov-15 16:28N 38°03' W 122°13'0 0.0
2014-Nov-15 15:29N 38°03' W 122°13'0 0.0
2014-Nov-15 14:30N 38°03' W 122°13'0 0.0
2014-Nov-15 13:30N 38°03' W 122°13'0 0.0
2014-Nov-15 12:31N 38°03' W 122°13'0 0.0
2014-Nov-15 11:32N 38°03' W 122°13'0 0.0
2014-Nov-15 10:32N 38°03' W 122°13'0 0.0
2014-Nov-15 09:33N 38°03' W 122°13'0 0.0
2014-Nov-15 08:28N 38°03' W 122°13'0 0.0
2014-Nov-15 07:28N 38°03' W 122°13'0 0.0
2014-Nov-15 06:29N 38°03' W 122°13'0 0.0
2014-Nov-15 05:30N 38°03' W 122°13'0 0.0
2014-Nov-15 04:30N 38°03' W 122°13'0 0.0
2014-Nov-15 03:31N 38°03' W 122°13'0 0.0
2014-Nov-15 02:32N 38°03' W 122°13'0 0.0
2014-Nov-15 01:32N 38°03' W 122°13'0 0.0
2014-Nov-14 23:28N 38°03' W 122°13'0 0.0
2014-Nov-14 22:28N 38°03' W 122°13'0 0.0
2014-Nov-14 21:23N 38°03' W 122°13'0 0.0
2014-Nov-14 20:30N 38°03' W 122°13'0 0.0
2014-Nov-14 18:31N 38°03' W 122°13'0 0.0
2014-Nov-14 17:32N 38°03' W 122°13'0 0.0
2014-Nov-14 16:32N 38°03' W 122°13'0 0.0
2014-Nov-14 15:33N 38°03' W 122°13'0 0.0
2014-Nov-14 14:28N 38°03' W 122°13'0 0.0
2014-Nov-14 12:23N 38°03' W 122°13'0 0.0
2014-Nov-14 11:30N 38°03' W 122°13'0 0.0
2014-Nov-14 10:30N 38°03' W 122°13'0 0.0
2014-Nov-14 09:31N 38°03' W 122°13'  

Dump ship's entire track history